createdAt,value
2022-10-04T00:01:47.653Z,12.90
2022-10-04T00:04:21.885Z,12.80
2022-10-04T00:07:16.191Z,12.80
2022-10-04T00:09:46.371Z,12.80
2022-10-04T00:12:28.993Z,12.80
2022-10-04T00:14:58.965Z,12.80
2022-10-04T00:17:30.693Z,12.80
2022-10-04T00:19:59.054Z,12.90
2022-10-04T00:22:30.036Z,12.90
2022-10-04T00:25:01.124Z,12.90
2022-10-04T00:27:29.979Z,12.90
2022-10-04T00:30:03.992Z,13.00
2022-10-04T00:32:40.006Z,13.00
2022-10-04T00:35:43.448Z,12.90
2022-10-04T00:38:15.468Z,12.90
2022-10-04T00:41:03.581Z,12.90
2022-10-04T00:43:38.961Z,12.90
2022-10-04T00:46:13.190Z,12.90
2022-10-04T00:48:41.309Z,12.90
2022-10-04T00:51:21.209Z,12.90
2022-10-04T00:53:51.879Z,12.90
2022-10-04T00:56:38.168Z,12.90
2022-10-04T00:59:13.076Z,12.90
2022-10-04T01:01:44.992Z,12.90
2022-10-04T01:04:24.614Z,12.90
2022-10-04T01:06:53.027Z,12.90
2022-10-04T01:09:23.913Z,12.90
2022-10-04T01:11:58.688Z,12.90
2022-10-04T01:14:35.504Z,12.90
2022-10-04T01:17:06.067Z,12.90
2022-10-04T01:19:34.699Z,12.90
2022-10-04T01:22:05.804Z,13.00
2022-10-04T01:24:35.259Z,13.00
2022-10-04T01:27:06.453Z,13.00
2022-10-04T01:29:34.488Z,13.00
2022-10-04T01:32:02.663Z,13.00
2022-10-04T01:34:31.056Z,13.00
2022-10-04T01:37:00.000Z,13.00
2022-10-04T01:39:29.177Z,13.00
2022-10-04T01:42:03.478Z,13.00
2022-10-04T01:44:34.044Z,13.00
2022-10-04T01:47:06.938Z,13.00
2022-10-04T01:49:36.766Z,13.00
2022-10-04T01:52:08.955Z,13.00
2022-10-04T01:54:40.679Z,13.00
2022-10-04T01:57:12.106Z,13.00
2022-10-04T02:00:01.880Z,13.00
2022-10-04T02:02:47.159Z,13.00
2022-10-04T02:05:19.042Z,13.00
2022-10-04T02:07:48.332Z,13.00
2022-10-04T02:10:18.722Z,13.00
2022-10-04T02:12:51.382Z,13.00
2022-10-04T02:15:21.180Z,13.00
2022-10-04T02:17:49.365Z,13.00
2022-10-04T02:20:24.343Z,13.00
2022-10-04T02:22:59.525Z,13.00
2022-10-04T02:25:28.115Z,13.00
2022-10-04T02:27:56.915Z,13.00
2022-10-04T02:30:26.096Z,13.00
2022-10-04T02:32:58.032Z,13.00
2022-10-04T02:35:36.180Z,13.00
2022-10-04T02:38:24.371Z,12.90
2022-10-04T02:41:12.839Z,12.90
2022-10-04T02:43:49.288Z,12.90
2022-10-04T02:46:24.622Z,12.90
2022-10-04T02:48:57.285Z,12.80
2022-10-04T02:51:41.141Z,12.80
2022-10-04T02:54:22.745Z,12.80
2022-10-04T02:56:53.730Z,12.80
2022-10-04T02:59:27.622Z,12.80
2022-10-04T03:02:00.574Z,12.80
2022-10-04T03:04:32.242Z,12.70
2022-10-04T03:07:02.317Z,12.70
2022-10-04T03:09:35.801Z,12.70
2022-10-04T03:12:05.155Z,12.60
2022-10-04T03:14:34.093Z,12.70
2022-10-04T03:17:04.503Z,12.70
2022-10-04T03:19:34.172Z,12.70
2022-10-04T03:22:04.171Z,12.60
2022-10-04T03:24:35.203Z,12.60
2022-10-04T03:27:06.882Z,12.60
2022-10-04T03:29:35.277Z,12.50
2022-10-04T03:32:04.712Z,12.50
2022-10-04T03:34:40.102Z,12.50
2022-10-04T03:37:20.498Z,12.40
2022-10-04T03:39:52.863Z,12.40
2022-10-04T03:42:23.958Z,12.40
2022-10-04T03:44:56.765Z,12.40
2022-10-04T03:47:32.822Z,12.40
2022-10-04T03:50:06.317Z,12.40
2022-10-04T03:52:35.359Z,12.30
2022-10-04T03:55:11.676Z,12.30
2022-10-04T03:57:39.796Z,12.30
2022-10-04T04:00:10.684Z,12.20
2022-10-04T04:02:46.274Z,12.20
2022-10-04T04:05:19.924Z,12.20
2022-10-04T04:07:52.294Z,12.10
2022-10-04T04:10:39.914Z,12.10
2022-10-04T04:13:26.713Z,12.10
2022-10-04T04:16:00.852Z,12.10
2022-10-04T04:18:33.779Z,12.10
2022-10-04T04:21:05.132Z,12.10
2022-10-04T04:23:36.304Z,12.10
2022-10-04T04:26:24.541Z,12.10
2022-10-04T04:28:58.560Z,12.10
2022-10-04T04:31:28.955Z,12.10
2022-10-04T04:34:02.107Z,12.10
2022-10-04T04:36:33.795Z,12.20
2022-10-04T04:39:41.438Z,12.20
2022-10-04T04:42:15.403Z,12.30
2022-10-04T04:44:54.421Z,12.30
2022-10-04T04:47:34.217Z,12.30
2022-10-04T04:50:07.095Z,12.40
2022-10-04T04:52:36.181Z,12.40
2022-10-04T04:55:07.255Z,12.40
2022-10-04T04:57:36.088Z,12.50
2022-10-04T05:00:05.040Z,12.50
2022-10-04T05:02:37.520Z,12.50
2022-10-04T05:05:25.378Z,12.50
2022-10-04T05:08:11.646Z,12.60
2022-10-04T05:10:48.338Z,12.60
2022-10-04T05:13:21.214Z,12.60
2022-10-04T05:15:56.538Z,12.70
2022-10-04T05:18:34.697Z,12.80
2022-10-04T05:21:24.699Z,12.80
2022-10-04T05:23:53.372Z,12.80
2022-10-04T05:26:25.565Z,12.90
2022-10-04T05:28:56.298Z,13.00
2022-10-04T05:31:39.592Z,13.00
2022-10-04T05:34:17.964Z,13.00
2022-10-04T05:36:50.414Z,13.10
2022-10-04T05:39:21.493Z,13.00
2022-10-04T05:42:08.202Z,13.00
2022-10-04T05:44:47.278Z,13.10
2022-10-04T05:47:23.236Z,13.10
2022-10-04T05:49:55.753Z,13.10
2022-10-04T05:52:33.632Z,13.10
2022-10-04T05:55:28.004Z,13.10
2022-10-04T05:58:18.702Z,13.10
2022-10-04T06:00:49.750Z,13.00
2022-10-04T06:03:29.761Z,13.00
2022-10-04T06:06:01.818Z,13.10
2022-10-04T06:08:30.238Z,13.10
2022-10-04T06:11:16.937Z,13.10
2022-10-04T06:13:59.756Z,13.20
2022-10-04T06:16:35.465Z,13.30
2022-10-04T06:19:22.071Z,13.30
2022-10-04T06:21:50.162Z,13.40
2022-10-04T06:24:23.936Z,13.40
2022-10-04T06:26:57.568Z,13.50
2022-10-04T06:29:31.349Z,13.50
2022-10-04T06:32:10.688Z,13.60
2022-10-04T06:34:47.029Z,13.60
2022-10-04T06:37:24.045Z,13.60
2022-10-04T06:39:55.306Z,13.70
2022-10-04T06:42:26.313Z,13.80
2022-10-04T06:45:06.935Z,13.80
2022-10-04T06:47:54.894Z,13.80
2022-10-04T06:50:29.230Z,13.90
2022-10-04T06:53:03.381Z,14.00
2022-10-04T06:55:32.370Z,14.10
2022-10-04T06:58:15.364Z,14.20
2022-10-04T07:01:07.005Z,14.50
2022-10-04T07:03:41.709Z,14.70
2022-10-04T07:06:11.723Z,14.90
2022-10-04T07:08:48.299Z,15.00
2022-10-04T07:11:33.069Z,15.10
2022-10-04T07:14:07.178Z,15.00
2022-10-04T07:16:47.926Z,15.00
2022-10-04T07:19:35.402Z,15.10
2022-10-04T07:22:12.443Z,15.10
2022-10-04T07:24:48.186Z,15.10
2022-10-04T07:27:22.233Z,15.20
2022-10-04T07:29:55.183Z,15.30
2022-10-04T07:32:31.184Z,15.40
2022-10-04T07:35:05.425Z,15.50
2022-10-04T07:37:52.204Z,15.60
2022-10-04T07:40:39.968Z,15.70
2022-10-04T07:43:10.631Z,15.70
2022-10-04T07:45:40.410Z,16.00
2022-10-04T07:48:16.362Z,16.40
2022-10-04T07:51:02.266Z,16.70
2022-10-04T07:53:30.557Z,16.90
2022-10-04T07:56:06.960Z,17.40
2022-10-04T07:58:53.533Z,17.80
2022-10-04T08:01:27.113Z,18.20
2022-10-04T08:04:15.503Z,18.50
2022-10-04T08:06:46.780Z,18.20
2022-10-04T08:09:23.671Z,17.80
2022-10-04T08:12:03.760Z,17.40
2022-10-04T08:14:44.129Z,17.00
2022-10-04T08:17:30.658Z,16.70
2022-10-04T08:20:01.826Z,16.40
2022-10-04T08:22:30.354Z,16.30
2022-10-04T08:25:17.143Z,16.20
2022-10-04T08:28:12.247Z,16.20
2022-10-04T08:30:55.531Z,16.10
2022-10-04T08:33:50.118Z,16.10
2022-10-04T08:36:18.222Z,16.00
2022-10-04T08:38:50.551Z,15.90
2022-10-04T08:41:37.294Z,15.90
2022-10-04T08:44:17.816Z,15.90
2022-10-04T08:47:05.721Z,16.00
2022-10-04T08:49:55.659Z,16.00
2022-10-04T08:52:23.664Z,16.00
2022-10-04T08:54:57.461Z,16.00
2022-10-04T08:57:44.354Z,16.20
2022-10-04T09:00:15.933Z,16.60
2022-10-04T09:02:47.057Z,17.10
2022-10-04T09:05:21.386Z,17.50
2022-10-04T09:07:58.786Z,18.00
2022-10-04T09:10:33.671Z,18.60
2022-10-04T09:13:07.916Z,19.00
2022-10-04T09:15:52.345Z,19.30
2022-10-04T09:18:32.002Z,19.40
2022-10-04T09:21:00.558Z,19.40
2022-10-04T09:23:31.713Z,19.40
2022-10-04T09:26:02.665Z,19.40
2022-10-04T09:28:49.506Z,19.70
2022-10-04T09:31:17.611Z,20.00
2022-10-04T09:33:45.718Z,20.20
2022-10-04T09:36:24.902Z,20.30
2022-10-04T09:39:25.224Z,20.40
2022-10-04T09:41:47.889Z,20.50
2022-10-04T09:44:19.038Z,20.70
2022-10-04T09:46:56.290Z,20.90
2022-10-04T09:49:43.388Z,21.40
2022-10-04T09:52:27.186Z,22.50
2022-10-04T09:55:06.824Z,23.30
2022-10-04T09:57:54.028Z,22.80
2022-10-04T10:00:25.466Z,23.10
2022-10-04T10:03:06.049Z,25.60
2022-10-04T10:05:55.447Z,27.40
2022-10-04T10:08:32.719Z,26.90
2022-10-04T10:11:38.182Z,25.90
2022-10-04T10:14:06.144Z,25.80
2022-10-04T10:16:42.681Z,27.60
2022-10-04T10:19:20.141Z,27.40
2022-10-04T10:22:03.444Z,26.20
2022-10-04T10:24:48.190Z,24.70
2022-10-04T10:27:20.074Z,23.60
2022-10-04T10:29:54.288Z,23.10
2022-10-04T10:32:28.733Z,24.20
2022-10-04T10:35:15.403Z,25.00
2022-10-04T10:37:46.504Z,26.40
2022-10-04T10:40:29.670Z,27.90
2022-10-04T10:43:18.718Z,28.50
2022-10-04T10:45:49.999Z,29.40
2022-10-04T10:48:31.906Z,30.10
2022-10-04T10:51:23.764Z,30.50
2022-10-04T10:53:56.167Z,30.50
2022-10-04T10:56:41.901Z,30.00
2022-10-04T10:59:10.719Z,29.00
2022-10-04T11:02:06.030Z,29.00
2022-10-04T11:04:55.098Z,28.80
2022-10-04T11:07:40.649Z,28.80
2022-10-04T11:10:17.898Z,29.90
2022-10-04T11:12:49.547Z,30.30
2022-10-04T11:15:38.729Z,29.70
2022-10-04T11:18:07.058Z,29.10
2022-10-04T11:20:35.421Z,28.60
2022-10-04T11:23:32.817Z,28.20
2022-10-04T11:26:06.819Z,27.60
2022-10-04T11:28:46.798Z,26.70
2022-10-04T11:31:21.393Z,26.20
2022-10-04T11:34:00.202Z,25.80
2022-10-04T11:36:47.456Z,25.60
2022-10-04T11:39:24.851Z,25.80
2022-10-04T11:42:08.196Z,26.10
2022-10-04T11:44:36.175Z,26.20
2022-10-04T11:47:19.257Z,26.70
2022-10-04T11:49:57.879Z,27.30
2022-10-04T11:52:37.395Z,29.20
2022-10-04T11:55:14.426Z,30.60
2022-10-04T11:57:42.632Z,29.60
2022-10-04T12:00:21.415Z,28.70
2022-10-04T12:03:09.674Z,27.80
2022-10-04T12:05:40.851Z,28.10
2022-10-04T12:08:21.144Z,28.80
2022-10-04T12:11:27.190Z,29.80
2022-10-04T12:14:25.221Z,30.70
2022-10-04T12:17:08.978Z,31.40
2022-10-04T12:19:38.585Z,30.90
2022-10-04T12:22:09.116Z,31.10
2022-10-04T12:24:59.159Z,30.40
2022-10-04T12:27:45.483Z,29.90
2022-10-04T12:30:24.370Z,28.60
2022-10-04T12:33:06.427Z,27.90
2022-10-04T12:35:43.532Z,28.10
2022-10-04T12:38:23.469Z,29.20
2022-10-04T12:41:18.586Z,30.10
2022-10-04T12:43:57.020Z,30.80
2022-10-04T12:46:45.565Z,31.00
2022-10-04T12:49:20.185Z,30.90
2022-10-04T12:51:54.785Z,31.00
2022-10-04T12:54:37.437Z,30.90
2022-10-04T12:57:31.309Z,30.40
2022-10-04T13:00:18.034Z,29.40
2022-10-04T13:02:51.895Z,28.10
2022-10-04T13:05:35.158Z,27.10
2022-10-04T13:08:21.882Z,26.40
2022-10-04T13:10:53.196Z,25.70
2022-10-04T13:13:24.300Z,25.80
2022-10-04T13:18:56.393Z,26.90
2022-10-04T13:21:36.917Z,27.30
2022-10-04T13:24:12.556Z,26.80
2022-10-04T13:26:40.549Z,27.30
2022-10-04T13:29:22.989Z,27.40
2022-10-04T13:32:11.717Z,27.10
2022-10-04T13:34:45.970Z,27.00
2022-10-04T13:37:16.995Z,26.70
2022-10-04T13:39:44.942Z,27.20
2022-10-04T13:42:12.961Z,27.70
2022-10-04T13:44:44.450Z,27.60
2022-10-04T13:47:31.230Z,27.10
2022-10-04T13:50:17.917Z,26.50
2022-10-04T13:53:15.728Z,25.80
2022-10-04T13:56:21.204Z,25.20
2022-10-04T13:58:56.415Z,24.60
2022-10-04T14:01:43.229Z,24.20
2022-10-04T14:04:11.536Z,24.10
2022-10-04T14:06:42.671Z,24.20
2022-10-04T14:09:14.172Z,24.50
2022-10-04T14:12:06.948Z,24.60
2022-10-04T14:14:50.971Z,24.50
2022-10-04T14:17:38.695Z,24.40
2022-10-04T14:20:24.695Z,24.20
2022-10-04T14:23:11.525Z,24.00
2022-10-04T14:25:49.495Z,24.30
2022-10-04T14:28:38.755Z,24.70
2022-10-04T14:31:10.553Z,25.20
2022-10-04T14:33:56.867Z,25.60
2022-10-04T14:36:27.998Z,25.80
2022-10-04T14:38:55.996Z,25.70
2022-10-04T14:41:35.330Z,25.40
2022-10-04T14:44:12.505Z,25.40
2022-10-04T14:47:03.609Z,25.10
2022-10-04T14:49:46.581Z,24.50
2022-10-04T14:52:21.010Z,24.00
2022-10-04T14:55:10.750Z,23.60
2022-10-04T14:57:38.669Z,23.50
2022-10-04T15:00:09.859Z,23.60
2022-10-04T15:02:49.643Z,23.40
2022-10-04T15:05:36.221Z,23.20
2022-10-04T15:08:22.499Z,22.90
2022-10-04T15:10:53.198Z,22.70
2022-10-04T15:13:33.555Z,22.40
2022-10-04T15:16:19.351Z,22.10
2022-10-04T15:19:00.881Z,21.80
2022-10-04T15:21:47.417Z,21.50
2022-10-04T15:24:18.482Z,21.40
2022-10-04T15:27:09.456Z,21.30
2022-10-04T15:29:37.831Z,21.10
2022-10-04T15:32:16.328Z,20.90
2022-10-04T15:34:53.635Z,20.70
2022-10-04T15:37:46.365Z,20.50
2022-10-04T15:40:27.457Z,20.40
2022-10-04T15:43:03.871Z,20.30
2022-10-04T15:45:48.117Z,20.20
2022-10-04T15:48:25.300Z,20.00
2022-10-04T15:51:17.714Z,19.90
2022-10-04T15:53:55.018Z,19.70
2022-10-04T15:56:27.580Z,19.60
2022-10-04T15:59:14.266Z,19.50
2022-10-04T16:01:55.481Z,19.40
2022-10-04T16:04:23.608Z,19.30
2022-10-04T16:06:58.764Z,19.30
2022-10-04T16:09:37.725Z,19.20
2022-10-04T16:12:19.901Z,19.20
2022-10-04T16:15:00.698Z,19.10
2022-10-04T16:17:50.096Z,19.10
2022-10-04T16:20:39.870Z,19.00
2022-10-04T16:23:26.234Z,18.90
2022-10-04T16:25:55.230Z,18.80
2022-10-04T16:28:29.003Z,18.80
2022-10-04T16:31:20.345Z,18.70
2022-10-04T16:34:09.854Z,18.70
2022-10-04T16:36:52.891Z,18.70
2022-10-04T16:39:53.955Z,18.70
2022-10-04T16:42:42.354Z,18.60
2022-10-04T16:45:10.713Z,18.60
2022-10-04T16:47:48.071Z,18.60
2022-10-04T16:50:36.094Z,18.50
2022-10-04T16:53:19.205Z,18.40
2022-10-04T16:55:56.279Z,18.40
2022-10-04T16:58:27.393Z,18.30
2022-10-04T17:01:14.492Z,18.30
2022-10-04T17:03:48.593Z,18.20
2022-10-04T17:06:31.531Z,18.10
2022-10-04T17:09:08.799Z,18.10
2022-10-04T17:11:46.168Z,18.00
2022-10-04T17:14:32.999Z,18.00
2022-10-04T17:17:04.504Z,17.90
2022-10-04T17:19:35.064Z,17.90
2022-10-04T17:22:04.645Z,17.90
2022-10-04T17:24:40.042Z,18.00
2022-10-04T17:27:19.513Z,17.90
2022-10-04T17:30:03.808Z,17.80
2022-10-04T17:32:41.174Z,17.80
2022-10-04T17:35:27.917Z,17.70
2022-10-04T17:38:05.144Z,17.70
2022-10-04T17:40:53.380Z,17.80
2022-10-04T17:43:44.764Z,17.70
2022-10-04T17:46:20.068Z,17.60
2022-10-04T17:49:28.520Z,17.60
2022-10-04T17:52:20.710Z,17.60
2022-10-04T17:55:13.105Z,17.50
2022-10-04T17:57:50.095Z,17.40
2022-10-04T18:00:25.524Z,17.40
2022-10-04T18:03:08.354Z,17.40
2022-10-04T18:05:42.496Z,17.30
2022-10-04T18:08:13.688Z,17.30
2022-10-04T18:10:48.213Z,17.30
2022-10-04T18:13:24.050Z,17.20
2022-10-04T18:15:55.158Z,17.20
2022-10-04T18:18:27.585Z,17.10
2022-10-04T18:21:04.947Z,17.10
2022-10-04T18:23:36.016Z,17.00
2022-10-04T18:26:22.794Z,17.00
2022-10-04T18:28:54.194Z,16.90
2022-10-04T18:31:31.535Z,16.90
2022-10-04T18:34:11.766Z,16.90
2022-10-04T18:36:51.989Z,16.80
2022-10-04T18:39:22.367Z,16.80
2022-10-04T18:42:16.709Z,16.80
2022-10-04T18:44:47.638Z,16.70
2022-10-04T18:47:17.512Z,16.60
2022-10-04T18:49:51.377Z,16.60
2022-10-04T18:52:33.790Z,16.60
2022-10-04T18:55:21.622Z,16.60
2022-10-04T18:58:15.800Z,16.60
2022-10-04T19:01:31.836Z,16.60
2022-10-04T19:04:06.465Z,16.40
2022-10-04T19:06:36.991Z,16.30
2022-10-04T19:09:16.293Z,16.20
2022-10-04T19:11:57.686Z,16.10
2022-10-04T19:14:25.673Z,16.00
2022-10-04T19:17:02.102Z,15.90
2022-10-04T19:19:39.943Z,15.80
2022-10-04T19:22:14.027Z,15.70
2022-10-04T19:24:53.005Z,15.60
2022-10-04T19:27:23.761Z,15.60
2022-10-04T19:29:57.724Z,15.50
2022-10-04T19:32:37.504Z,15.40
2022-10-04T19:35:29.255Z,15.40
2022-10-04T19:38:08.586Z,15.40
2022-10-04T19:40:44.722Z,15.30
2022-10-04T19:43:21.390Z,15.30
2022-10-04T19:46:08.602Z,15.20
2022-10-04T19:48:45.688Z,15.20
2022-10-04T19:51:16.744Z,15.20
2022-10-04T19:53:46.330Z,15.10
2022-10-04T19:56:24.290Z,15.10
2022-10-04T19:58:58.904Z,15.10
2022-10-04T20:01:27.377Z,15.10
2022-10-04T20:04:13.912Z,15.00
2022-10-04T20:06:48.826Z,15.00
2022-10-04T20:09:23.290Z,15.00
2022-10-04T20:11:53.202Z,14.90
2022-10-04T20:14:21.783Z,14.90
2022-10-04T20:16:50.447Z,14.80
2022-10-04T20:19:18.944Z,14.80
2022-10-04T20:21:47.163Z,14.70
2022-10-04T20:24:39.124Z,14.70
2022-10-04T20:27:09.463Z,14.70
2022-10-04T20:29:37.598Z,14.60
2022-10-04T20:32:09.657Z,14.60
2022-10-04T20:34:38.055Z,14.60
2022-10-04T20:37:09.322Z,14.50
2022-10-04T20:39:37.457Z,14.50
2022-10-04T20:42:20.528Z,14.40
2022-10-04T20:44:54.953Z,14.40
2022-10-04T20:47:31.000Z,14.30
2022-10-04T20:50:00.349Z,14.30
2022-10-04T20:52:30.955Z,14.30
2022-10-04T20:55:01.889Z,14.20
2022-10-04T20:57:30.640Z,14.20
2022-10-04T20:59:59.728Z,14.20
2022-10-04T21:02:29.182Z,14.10
2022-10-04T21:05:12.210Z,14.00
2022-10-04T21:07:40.395Z,14.00
2022-10-04T21:10:19.180Z,14.00
2022-10-04T21:12:50.724Z,13.90
2022-10-04T21:15:21.637Z,13.90
2022-10-04T21:18:04.290Z,13.90
2022-10-04T21:20:42.773Z,13.80
2022-10-04T21:23:23.795Z,13.80
2022-10-04T21:25:51.902Z,13.70
2022-10-04T21:28:38.084Z,13.70
2022-10-04T21:31:06.127Z,13.70
2022-10-04T21:33:34.729Z,13.60
2022-10-04T21:36:04.382Z,13.60
2022-10-04T21:38:32.587Z,13.60
2022-10-04T21:41:01.015Z,13.50
2022-10-04T21:43:29.189Z,13.50
2022-10-04T21:45:58.166Z,13.40
2022-10-04T21:48:30.354Z,13.40
2022-10-04T21:50:58.293Z,13.40
2022-10-04T21:53:28.906Z,13.30
2022-10-04T21:55:59.305Z,13.30
2022-10-04T21:58:27.540Z,13.20
2022-10-04T22:00:55.845Z,13.20
2022-10-04T22:03:25.844Z,13.30
2022-10-04T22:05:54.347Z,13.30
2022-10-04T22:08:22.382Z,13.30
2022-10-04T22:10:57.433Z,13.30
2022-10-04T22:13:27.210Z,13.30
2022-10-04T22:15:58.016Z,13.20
2022-10-04T22:18:26.290Z,13.10
2022-10-04T22:20:54.305Z,13.10
2022-10-04T22:23:24.167Z,13.00
2022-10-04T22:25:52.717Z,13.00
2022-10-04T22:28:20.957Z,12.90
2022-10-04T22:30:50.504Z,12.90
2022-10-04T22:33:27.703Z,12.90
2022-10-04T22:36:22.230Z,12.90
2022-10-04T22:38:59.356Z,12.80
2022-10-04T22:41:32.045Z,12.70
2022-10-04T22:44:04.399Z,12.70
2022-10-04T22:46:37.746Z,12.70
2022-10-04T22:49:12.828Z,12.70
2022-10-04T22:51:47.999Z,12.60
2022-10-04T22:54:17.601Z,12.60
2022-10-04T22:56:46.005Z,12.50
2022-10-04T22:59:15.449Z,12.50
2022-10-04T23:01:44.444Z,12.50
2022-10-04T23:04:19.225Z,12.50
2022-10-04T23:06:48.007Z,12.40
2022-10-04T23:09:16.493Z,12.40
2022-10-04T23:11:44.869Z,12.40
2022-10-04T23:14:16.053Z,12.40
2022-10-04T23:16:45.140Z,12.30
2022-10-04T23:19:15.341Z,12.30
2022-10-04T23:21:44.595Z,12.30
2022-10-04T23:24:19.964Z,12.20
2022-10-04T23:26:56.198Z,12.20
2022-10-04T23:29:26.382Z,12.20
2022-10-04T23:31:56.099Z,12.10
2022-10-04T23:34:33.291Z,12.10
2022-10-04T23:37:01.394Z,12.10
2022-10-04T23:39:32.140Z,12.10
2022-10-04T23:42:00.188Z,12.10
2022-10-04T23:44:36.355Z,12.00
2022-10-04T23:47:14.070Z,12.00
2022-10-04T23:49:45.465Z,12.00
2022-10-04T23:52:20.169Z,11.90
2022-10-04T23:54:49.921Z,11.90
2022-10-04T23:57:26.286Z,11.90
2022-10-04T23:59:54.565Z,11.90
